createdAt,value
2022-07-26T00:02:29.924Z,20.65
2022-07-26T00:05:12.283Z,20.67
2022-07-26T00:08:13.750Z,20.70
2022-07-26T00:10:56.252Z,20.64
2022-07-26T00:13:47.174Z,20.59
2022-07-26T00:16:28.705Z,20.68
2022-07-26T00:19:16.397Z,20.60
2022-07-26T00:22:17.347Z,20.45
2022-07-26T00:25:07.337Z,20.47
2022-07-26T00:27:49.031Z,20.47
2022-07-26T00:30:38.631Z,20.44
2022-07-26T00:33:20.002Z,20.39
2022-07-26T00:36:09.831Z,20.47
2022-07-26T00:38:50.294Z,20.37
2022-07-26T00:41:38.378Z,20.42
2022-07-26T00:44:20.411Z,20.54
2022-07-26T00:47:08.079Z,20.46
2022-07-26T00:49:51.291Z,20.41
2022-07-26T00:52:39.385Z,20.34
2022-07-26T00:55:21.777Z,20.32
2022-07-26T00:58:09.504Z,20.31
2022-07-26T01:00:54.077Z,20.42
2022-07-26T01:03:43.425Z,20.44
2022-07-26T01:06:27.311Z,20.36
2022-07-26T01:09:16.423Z,20.29
2022-07-26T01:11:58.687Z,20.34
2022-07-26T01:14:49.382Z,20.28
2022-07-26T01:17:31.672Z,20.23
2022-07-26T01:20:22.831Z,20.26
2022-07-26T01:23:03.305Z,20.29
2022-07-26T01:25:51.422Z,20.23
2022-07-26T01:28:33.664Z,20.25
2022-07-26T01:31:26.801Z,20.15
2022-07-26T01:34:07.595Z,20.26
2022-07-26T01:36:56.481Z,20.31
2022-07-26T01:39:37.305Z,20.17
2022-07-26T01:42:26.212Z,20.21
2022-07-26T01:45:07.674Z,20.16
2022-07-26T01:47:54.406Z,20.11
2022-07-26T01:50:36.072Z,20.13
2022-07-26T01:53:26.893Z,20.14
2022-07-26T01:56:07.344Z,20.12
2022-07-26T01:58:55.501Z,20.12
2022-07-26T02:01:38.915Z,20.08
2022-07-26T02:04:46.357Z,20.13
2022-07-26T02:07:27.622Z,20.09
2022-07-26T02:10:17.498Z,20.17
2022-07-26T02:13:00.320Z,20.16
2022-07-26T02:15:48.958Z,20.09
2022-07-26T02:18:29.441Z,20.02
2022-07-26T02:21:17.456Z,19.99
2022-07-26T02:23:58.323Z,19.99
2022-07-26T02:26:49.202Z,20.09
2022-07-26T02:29:34.184Z,19.98
2022-07-26T02:32:22.421Z,20.00
2022-07-26T02:35:04.851Z,19.98
2022-07-26T02:37:55.861Z,20.01
2022-07-26T02:40:36.348Z,19.93
2022-07-26T02:43:24.529Z,19.96
2022-07-26T02:46:05.746Z,19.85
2022-07-26T02:48:55.039Z,19.82
2022-07-26T02:51:50.107Z,19.77
2022-07-26T02:54:38.510Z,19.87
2022-07-26T02:57:21.368Z,19.86
2022-07-26T03:00:08.685Z,19.85
2022-07-26T03:02:49.482Z,19.85
2022-07-26T03:05:37.582Z,19.84
2022-07-26T03:08:19.376Z,19.88
2022-07-26T03:11:12.013Z,19.84
2022-07-26T03:13:54.358Z,19.98
2022-07-26T03:16:41.590Z,19.89
2022-07-26T03:19:22.418Z,19.89
2022-07-26T03:22:13.306Z,19.76
2022-07-26T03:24:54.352Z,19.73
2022-07-26T03:27:41.495Z,19.76
2022-07-26T03:30:25.308Z,19.75
2022-07-26T03:33:16.291Z,19.74
2022-07-26T03:35:57.421Z,19.68
2022-07-26T03:38:44.499Z,19.75
2022-07-26T03:41:25.398Z,19.65
2022-07-26T03:44:13.916Z,19.67
2022-07-26T03:46:54.758Z,19.71
2022-07-26T03:49:41.490Z,19.73
2022-07-26T03:52:36.383Z,19.69
2022-07-26T03:55:48.039Z,19.63
2022-07-26T03:58:28.369Z,19.61
2022-07-26T04:01:15.644Z,19.49
2022-07-26T04:03:56.404Z,19.55
2022-07-26T04:06:44.627Z,19.53
2022-07-26T04:09:27.653Z,19.62
2022-07-26T04:12:15.536Z,19.55
2022-07-26T04:14:56.526Z,19.50
2022-07-26T04:17:48.871Z,19.41
2022-07-26T04:20:31.528Z,19.55
2022-07-26T04:23:19.497Z,19.35
2022-07-26T04:26:01.169Z,19.29
2022-07-26T04:28:50.178Z,19.27
2022-07-26T04:31:36.359Z,19.25
2022-07-26T04:34:25.528Z,19.26
2022-07-26T04:37:08.452Z,19.29
2022-07-26T04:39:55.636Z,19.32
2022-07-26T04:42:36.446Z,19.34
2022-07-26T04:45:23.516Z,19.33
2022-07-26T04:48:05.503Z,19.31
2022-07-26T04:50:53.077Z,19.36
2022-07-26T04:53:41.003Z,19.31
2022-07-26T04:56:22.579Z,19.30
2022-07-26T04:59:09.793Z,19.40
2022-07-26T05:01:52.071Z,19.44
2022-07-26T05:04:39.800Z,19.54
2022-07-26T05:07:20.559Z,19.41
2022-07-26T05:10:15.938Z,19.33
2022-07-26T05:13:05.650Z,19.42
2022-07-26T05:15:46.440Z,19.41
2022-07-26T05:18:45.973Z,19.56
2022-07-26T05:21:29.857Z,19.50
2022-07-26T05:24:17.324Z,19.57
2022-07-26T05:27:00.048Z,19.62
2022-07-26T05:29:49.630Z,19.60
2022-07-26T05:32:31.772Z,19.64
2022-07-26T05:35:20.146Z,19.80
2022-07-26T05:38:01.583Z,19.78
2022-07-26T05:40:51.054Z,19.86
2022-07-26T05:43:40.702Z,19.78
2022-07-26T05:46:31.718Z,19.82
2022-07-26T05:49:17.743Z,19.84
2022-07-26T05:52:14.469Z,19.84
2022-07-26T05:55:01.829Z,19.85
2022-07-26T05:57:49.478Z,19.86
2022-07-26T06:00:36.580Z,19.98
2022-07-26T06:03:23.532Z,20.13
2022-07-26T06:06:11.847Z,20.16
2022-07-26T06:08:52.693Z,20.17
2022-07-26T06:11:39.487Z,20.22
2022-07-26T06:14:20.582Z,20.27
2022-07-26T06:17:10.523Z,20.27
2022-07-26T06:19:52.216Z,20.31
2022-07-26T06:22:39.481Z,20.34
2022-07-26T06:25:20.580Z,20.43
2022-07-26T06:28:12.125Z,20.51
2022-07-26T06:30:52.617Z,20.50
2022-07-26T06:33:40.860Z,20.47
2022-07-26T06:36:25.126Z,20.50
2022-07-26T06:39:16.481Z,20.68
2022-07-26T06:41:58.786Z,20.70
2022-07-26T06:44:47.697Z,20.72
2022-07-26T06:47:28.637Z,20.70
2022-07-26T06:50:17.345Z,20.84
2022-07-26T06:53:13.671Z,21.09
2022-07-26T06:55:57.406Z,21.25
2022-07-26T06:58:44.607Z,21.34
2022-07-26T07:01:57.032Z,21.54
2022-07-26T07:04:33.176Z,21.80
2022-07-26T07:07:15.477Z,21.99
2022-07-26T07:10:02.615Z,22.09
2022-07-26T07:12:43.893Z,22.22
2022-07-26T07:15:34.561Z,22.31
2022-07-26T07:18:18.999Z,22.35
2022-07-26T07:21:06.808Z,22.50
2022-07-26T07:23:47.493Z,22.49
2022-07-26T07:26:38.027Z,22.69
2022-07-26T07:29:22.392Z,22.85
2022-07-26T07:32:15.921Z,23.06
2022-07-26T07:35:00.282Z,23.20
2022-07-26T07:37:53.375Z,23.47
2022-07-26T07:40:34.559Z,23.82
2022-07-26T07:43:22.661Z,24.04
2022-07-26T07:46:04.533Z,24.27
2022-07-26T07:48:56.227Z,24.62
2022-07-26T07:51:38.507Z,25.07
2022-07-26T07:54:35.940Z,25.49
2022-07-26T07:57:16.654Z,25.85
2022-07-26T08:00:05.731Z,26.01
2022-07-26T08:02:50.858Z,26.35
2022-07-26T08:05:40.515Z,27.15
2022-07-26T08:08:22.894Z,28.33
2022-07-26T08:11:13.643Z,29.50
2022-07-26T08:13:56.678Z,30.60
2022-07-26T08:16:44.801Z,31.33
2022-07-26T08:19:25.655Z,31.18
2022-07-26T08:22:18.462Z,30.37
2022-07-26T08:25:00.928Z,28.92
2022-07-26T08:28:09.348Z,28.01
2022-07-26T08:31:20.129Z,27.68
2022-07-26T08:34:07.343Z,28.01
2022-07-26T08:37:15.811Z,28.27
2022-07-26T08:40:02.669Z,28.11
2022-07-26T08:42:43.586Z,27.63
2022-07-26T08:45:33.719Z,27.18
2022-07-26T08:48:17.765Z,26.65
2022-07-26T08:51:15.930Z,26.24
2022-07-26T08:54:14.356Z,25.92
2022-07-26T08:57:03.649Z,26.78
2022-07-26T08:59:44.944Z,28.05
2022-07-26T09:02:47.402Z,28.09
2022-07-26T09:05:39.656Z,27.21
2022-07-26T09:08:37.227Z,26.24
2022-07-26T09:11:31.493Z,25.72
2022-07-26T09:14:19.889Z,25.35
2022-07-26T09:17:07.331Z,25.21
2022-07-26T09:20:14.677Z,25.01
2022-07-26T09:23:08.593Z,24.92
2022-07-26T09:25:57.594Z,24.98
2022-07-26T09:28:45.060Z,25.41
2022-07-26T09:31:32.815Z,26.67
2022-07-26T09:34:14.060Z,27.52
2022-07-26T09:37:02.121Z,28.47
2022-07-26T09:40:01.602Z,28.64
2022-07-26T09:43:04.726Z,28.63
2022-07-26T09:45:46.360Z,28.17
2022-07-26T09:49:09.773Z,27.49
2022-07-26T09:51:48.687Z,26.78
2022-07-26T09:54:37.064Z,26.14
2022-07-26T09:57:17.629Z,25.71
2022-07-26T10:00:05.945Z,25.45
2022-07-26T10:02:48.588Z,25.33
2022-07-26T10:05:36.758Z,25.32
2022-07-26T10:08:19.593Z,25.29
2022-07-26T10:11:14.368Z,25.36
2022-07-26T10:13:55.999Z,25.53
2022-07-26T10:16:44.729Z,25.79
2022-07-26T10:20:09.444Z,26.03
2022-07-26T10:23:05.857Z,26.38
2022-07-26T10:25:46.649Z,26.74
2022-07-26T10:28:36.912Z,27.14
2022-07-26T10:31:28.049Z,27.11
2022-07-26T10:34:16.128Z,27.03
2022-07-26T10:37:06.005Z,27.43
2022-07-26T10:39:53.734Z,27.60
2022-07-26T10:42:49.631Z,27.90
2022-07-26T10:45:37.661Z,28.20
2022-07-26T10:48:22.635Z,28.33
2022-07-26T10:51:33.778Z,28.12
2022-07-26T10:54:24.616Z,28.20
2022-07-26T10:57:05.781Z,27.09
2022-07-26T10:59:56.289Z,26.53
2022-07-26T11:02:39.943Z,26.06
2022-07-26T11:05:35.757Z,25.78
2022-07-26T11:08:17.557Z,25.79
2022-07-26T11:11:06.185Z,25.79
2022-07-26T11:13:46.755Z,25.85
2022-07-26T11:16:48.025Z,25.88
2022-07-26T11:19:30.900Z,25.79
2022-07-26T11:22:17.645Z,25.87
2022-07-26T11:24:58.760Z,26.12
2022-07-26T11:28:11.658Z,26.34
2022-07-26T11:31:12.875Z,26.41
2022-07-26T11:34:03.035Z,26.27
2022-07-26T11:36:44.852Z,26.31
2022-07-26T11:39:40.049Z,26.46
2022-07-26T11:42:22.213Z,26.90
2022-07-26T11:45:09.025Z,27.22
2022-07-26T11:47:49.796Z,27.10
2022-07-26T11:50:36.770Z,27.12
2022-07-26T11:53:37.250Z,27.23
2022-07-26T11:56:25.114Z,27.09
2022-07-26T11:59:06.799Z,26.55
2022-07-26T12:01:57.714Z,26.47
2022-07-26T12:04:46.644Z,26.75
2022-07-26T12:07:35.079Z,27.03
2022-07-26T12:10:22.773Z,27.25
2022-07-26T12:13:55.400Z,26.96
2022-07-26T12:16:53.871Z,26.93
2022-07-26T12:19:43.445Z,27.08
2022-07-26T12:22:26.790Z,27.52
2022-07-26T12:25:15.860Z,27.71
2022-07-26T12:27:55.867Z,27.59
2022-07-26T12:30:43.715Z,27.58
2022-07-26T12:33:25.862Z,27.27
2022-07-26T12:36:32.297Z,27.01
2022-07-26T12:39:16.214Z,26.98
2022-07-26T12:42:02.770Z,26.98
2022-07-26T12:44:43.848Z,27.04
2022-07-26T12:47:33.110Z,27.01
2022-07-26T12:50:15.102Z,27.03
2022-07-26T12:53:14.780Z,26.85
2022-07-26T12:56:01.809Z,26.84
2022-07-26T12:58:43.104Z,26.78
2022-07-26T13:01:32.030Z,26.56
2022-07-26T13:04:13.369Z,26.42
2022-07-26T13:07:00.843Z,26.44
2022-07-26T13:09:42.766Z,26.71
2022-07-26T13:12:34.488Z,27.00
2022-07-26T13:15:16.828Z,27.15
2022-07-26T13:18:03.843Z,27.25
2022-07-26T13:20:48.505Z,27.29
2022-07-26T13:23:41.004Z,27.44
2022-07-26T13:26:21.789Z,27.63
2022-07-26T13:29:09.845Z,27.84
2022-07-26T13:31:50.860Z,27.93
2022-07-26T13:34:38.995Z,28.03
2022-07-26T13:37:20.130Z,28.01
2022-07-26T13:40:07.839Z,27.98
2022-07-26T13:42:49.588Z,27.99
2022-07-26T13:45:40.108Z,27.84
2022-07-26T13:48:20.757Z,27.81
2022-07-26T13:51:09.389Z,27.82
2022-07-26T13:54:03.779Z,27.73
2022-07-26T13:56:52.002Z,27.62
2022-07-26T13:59:34.523Z,27.63
2022-07-26T14:02:25.708Z,27.53
2022-07-26T14:05:08.156Z,27.35
2022-07-26T14:07:56.660Z,27.27
2022-07-26T14:10:37.776Z,27.33
2022-07-26T14:13:25.895Z,27.44
2022-07-26T14:16:06.759Z,27.34
2022-07-26T14:18:56.585Z,27.21
2022-07-26T14:21:58.741Z,27.07
2022-07-26T14:24:45.862Z,26.74
2022-07-26T14:27:26.781Z,26.87
2022-07-26T14:30:18.945Z,27.01
2022-07-26T14:32:59.761Z,27.20
2022-07-26T14:35:47.862Z,27.38
2022-07-26T14:38:30.155Z,27.37
2022-07-26T14:41:19.484Z,27.30
2022-07-26T14:44:00.817Z,27.30
2022-07-26T14:46:49.946Z,27.02
2022-07-26T14:49:33.570Z,26.92
2022-07-26T14:52:23.406Z,27.10
2022-07-26T14:55:10.193Z,27.07
2022-07-26T14:57:50.889Z,26.88
2022-07-26T15:00:38.876Z,26.62
2022-07-26T15:03:21.356Z,26.24
2022-07-26T15:06:07.820Z,25.80
2022-07-26T15:08:48.895Z,25.72
2022-07-26T15:11:35.810Z,25.78
2022-07-26T15:14:17.700Z,25.78
2022-07-26T15:17:06.799Z,25.92
2022-07-26T15:19:47.898Z,25.89
2022-07-26T15:22:34.816Z,25.84
2022-07-26T15:25:16.949Z,25.92
2022-07-26T15:28:04.177Z,25.97
2022-07-26T15:30:44.950Z,26.09
2022-07-26T15:33:33.172Z,26.04
2022-07-26T15:36:15.580Z,25.86
2022-07-26T15:39:16.069Z,25.41
2022-07-26T15:42:03.924Z,25.27
2022-07-26T15:44:54.884Z,25.22
2022-07-26T15:47:53.188Z,25.34
2022-07-26T15:50:48.823Z,25.34
2022-07-26T15:53:48.789Z,25.10
2022-07-26T15:56:35.818Z,24.91
2022-07-26T15:59:20.480Z,24.77
2022-07-26T16:02:09.261Z,24.83
2022-07-26T16:04:49.972Z,24.81
2022-07-26T16:07:41.244Z,24.88
2022-07-26T16:10:25.048Z,24.93
2022-07-26T16:13:15.931Z,24.95
2022-07-26T16:15:57.049Z,25.05
2022-07-26T16:18:43.878Z,25.09
2022-07-26T16:21:26.797Z,25.14
2022-07-26T16:24:14.843Z,25.20
2022-07-26T16:26:56.941Z,25.14
2022-07-26T16:29:43.865Z,25.07
2022-07-26T16:32:25.137Z,25.00
2022-07-26T16:35:18.100Z,25.01
2022-07-26T16:37:59.775Z,24.95
2022-07-26T16:40:46.875Z,24.82
2022-07-26T16:43:31.495Z,24.64
2022-07-26T16:46:18.404Z,24.42
2022-07-26T16:49:20.059Z,24.27
2022-07-26T16:52:07.628Z,24.16
2022-07-26T16:54:55.401Z,24.14
2022-07-26T16:57:38.395Z,24.05
2022-07-26T17:00:28.013Z,24.07
2022-07-26T17:03:09.272Z,24.17
2022-07-26T17:05:56.781Z,24.28
2022-07-26T17:08:39.640Z,24.35
2022-07-26T17:11:29.042Z,24.29
2022-07-26T17:14:09.871Z,24.30
2022-07-26T17:16:59.046Z,24.31
2022-07-26T17:19:40.257Z,24.16
2022-07-26T17:22:29.974Z,23.88
2022-07-26T17:25:14.366Z,24.02
2022-07-26T17:28:02.913Z,23.98
2022-07-26T17:30:45.743Z,23.78
2022-07-26T17:33:35.019Z,23.72
2022-07-26T17:36:26.878Z,23.81
2022-07-26T17:39:15.858Z,23.67
2022-07-26T17:41:56.864Z,23.58
2022-07-26T17:44:46.488Z,23.62
2022-07-26T17:47:29.022Z,23.55
2022-07-26T17:53:18.275Z,23.45
2022-07-26T17:56:11.996Z,23.38
2022-07-26T17:58:53.267Z,23.20
2022-07-26T18:01:50.559Z,22.92
2022-07-26T18:04:35.313Z,22.94
2022-07-26T18:07:22.986Z,22.91
2022-07-26T18:10:05.781Z,22.84
2022-07-26T18:12:55.168Z,22.79
2022-07-26T18:15:36.715Z,22.78
2022-07-26T18:18:24.993Z,22.73
2022-07-26T18:21:05.928Z,22.68
2022-07-26T18:24:15.744Z,22.62
2022-07-26T18:26:55.900Z,22.65
2022-07-26T18:29:43.992Z,22.64
2022-07-26T18:32:26.309Z,22.61
2022-07-26T18:35:14.652Z,22.50
2022-07-26T18:37:55.943Z,22.42
2022-07-26T18:40:45.026Z,22.29
2022-07-26T18:43:25.966Z,22.34
2022-07-26T18:46:14.073Z,22.16
2022-07-26T18:48:55.348Z,22.19
2022-07-26T18:51:46.119Z,22.12
2022-07-26T18:54:44.294Z,22.01
2022-07-26T18:57:32.921Z,22.07
2022-07-26T19:00:22.521Z,22.00
2022-07-26T19:03:10.009Z,21.79
2022-07-26T19:05:51.423Z,21.99
2022-07-26T19:08:39.236Z,21.97
2022-07-26T19:11:21.690Z,21.77
2022-07-26T19:14:11.038Z,21.67
2022-07-26T19:16:53.092Z,21.70
2022-07-26T19:19:42.972Z,21.55
2022-07-26T19:22:23.922Z,21.34
2022-07-26T19:25:16.188Z,21.29
2022-07-26T19:27:56.956Z,21.21
2022-07-26T19:30:45.890Z,21.16
2022-07-26T19:33:31.216Z,21.03
2022-07-26T19:36:25.355Z,21.00
2022-07-26T19:39:08.431Z,20.87
2022-07-26T19:41:55.527Z,20.80
2022-07-26T19:44:35.975Z,20.63
2022-07-26T19:47:26.646Z,20.65
2022-07-26T19:50:07.035Z,20.58
2022-07-26T19:52:55.088Z,20.44
2022-07-26T19:55:48.959Z,20.54
2022-07-26T19:58:37.059Z,20.41
2022-07-26T20:01:18.775Z,20.47
2022-07-26T20:04:06.099Z,20.45
2022-07-26T20:06:47.350Z,20.28
2022-07-26T20:09:37.117Z,20.11
2022-07-26T20:12:17.960Z,20.19
2022-07-26T20:15:05.288Z,20.35
2022-07-26T20:17:48.324Z,20.29
2022-07-26T20:20:37.069Z,20.18
2022-07-26T20:23:18.025Z,20.08
2022-07-26T20:26:05.878Z,20.12
2022-07-26T20:28:48.357Z,20.09
2022-07-26T20:31:41.072Z,19.74
2022-07-26T20:34:22.731Z,19.77
2022-07-26T20:37:11.574Z,19.63
2022-07-26T20:39:51.987Z,19.61
2022-07-26T20:42:44.260Z,19.61
2022-07-26T20:45:25.027Z,19.52
2022-07-26T20:48:20.318Z,19.62
2022-07-26T20:51:02.133Z,19.65
2022-07-26T20:53:57.977Z,19.75
2022-07-26T20:56:46.980Z,19.65
2022-07-26T20:59:29.480Z,19.74
2022-07-26T21:02:16.041Z,19.55
2022-07-26T21:04:58.832Z,19.51
2022-07-26T21:07:58.543Z,19.60
2022-07-26T21:10:41.458Z,19.45
2022-07-26T21:13:30.162Z,19.38
2022-07-26T21:16:12.199Z,19.54
2022-07-26T21:19:03.127Z,19.44
2022-07-26T21:21:45.674Z,19.33
2022-07-26T21:24:33.776Z,19.15
2022-07-26T21:27:15.153Z,19.22
2022-07-26T21:30:03.006Z,19.16
2022-07-26T21:32:44.391Z,19.15
2022-07-26T21:35:32.594Z,19.26
2022-07-26T21:38:13.104Z,19.30
2022-07-26T21:44:03.538Z,19.02
2022-07-26T21:46:51.168Z,19.25
2022-07-26T21:49:32.304Z,19.19
2022-07-26T21:52:20.379Z,18.99
2022-07-26T21:55:17.856Z,18.96
2022-07-26T21:58:05.775Z,18.82
2022-07-26T22:00:47.181Z,18.69
2022-07-26T22:03:35.021Z,18.57
2022-07-26T22:06:17.548Z,18.46
2022-07-26T22:09:06.055Z,18.63
2022-07-26T22:11:47.293Z,18.82
2022-07-26T22:14:34.825Z,18.70
2022-07-26T22:17:18.816Z,18.48
2022-07-26T22:20:07.045Z,18.42
2022-07-26T22:22:48.140Z,18.38
2022-07-26T22:25:38.790Z,18.36
2022-07-26T22:28:20.616Z,18.48
2022-07-26T22:31:08.457Z,18.42
2022-07-26T22:33:49.436Z,18.37
2022-07-26T22:36:36.060Z,18.29
2022-07-26T22:39:18.883Z,18.12
2022-07-26T22:42:15.263Z,18.18
2022-07-26T22:44:59.184Z,18.08
2022-07-26T22:47:55.885Z,18.10
2022-07-26T22:50:37.580Z,18.04
2022-07-26T22:53:25.061Z,17.97
2022-07-26T22:56:12.206Z,17.83
2022-07-26T22:59:00.555Z,17.66
2022-07-26T23:01:48.600Z,17.75
2022-07-26T23:04:30.009Z,17.81
2022-07-26T23:07:20.187Z,17.88
2022-07-26T23:10:02.081Z,17.76
2022-07-26T23:12:53.386Z,17.70
2022-07-26T23:15:35.061Z,17.70
2022-07-26T23:18:22.221Z,17.70
2022-07-26T23:21:04.047Z,17.79
2022-07-26T23:23:54.271Z,17.78
2022-07-26T23:26:36.983Z,17.81
2022-07-26T23:29:24.212Z,17.81
2022-07-26T23:32:05.071Z,17.65
2022-07-26T23:34:52.982Z,17.62
2022-07-26T23:37:34.484Z,17.49
2022-07-26T23:40:21.649Z,17.49
2022-07-26T23:43:03.067Z,17.47
2022-07-26T23:45:50.217Z,17.49
2022-07-26T23:48:31.168Z,17.55
2022-07-26T23:51:19.547Z,17.48
2022-07-26T23:54:00.984Z,17.56
2022-07-26T23:56:50.426Z,17.54
2022-07-26T23:59:31.104Z,17.47
